sensor_id;sensor_type;location;lat;lon;timestamp;pressure;altitude;pressure_sealevel;temperature;humidity
79127;BME280;68528;48.814;8.904;2023-06-01T00:00:15;96551.88;;;11.30;63.51
79127;BME280;68528;48.814;8.904;2023-06-01T00:02:41;96580.38;;;11.25;64.56
79127;BME280;68528;48.814;8.904;2023-06-01T00:05:07;96530.56;;;11.00;63.74
79127;BME280;68528;48.814;8.904;2023-06-01T00:07:32;96539.50;;;10.97;63.79
79127;BME280;68528;48.814;8.904;2023-06-01T00:09:58;96551.19;;;10.94;64.42
79127;BME280;68528;48.814;8.904;2023-06-01T00:12:25;96530.31;;;10.67;64.32
79127;BME280;68528;48.814;8.904;2023-06-01T00:14:50;96555.00;;;10.90;63.87
79127;BME280;68528;48.814;8.904;2023-06-01T00:17:16;96525.84;;;10.78;63.40
79127;BME280;68528;48.814;8.904;2023-06-01T00:19:42;96545.72;;;10.94;63.75
79127;BME280;68528;48.814;8.904;2023-06-01T00:22:10;96565.72;;;11.18;63.01
79127;BME280;68528;48.814;8.904;2023-06-01T00:24:36;96563.31;;;10.93;63.57
79127;BME280;68528;48.814;8.904;2023-06-01T00:27:01;96569.63;;;11.17;62.39
79127;BME280;68528;48.814;8.904;2023-06-01T00:29:26;96559.53;;;11.21;62.48
79127;BME280;68528;48.814;8.904;2023-06-01T00:31:52;96505.94;;;10.81;62.50
79127;BME280;68528;48.814;8.904;2023-06-01T00:34:17;96558.53;;;11.10;63.38
79127;BME280;68528;48.814;8.904;2023-06-01T00:36:43;96521.75;;;11.11;62.40
79127;BME280;68528;48.814;8.904;2023-06-01T00:39:09;96530.75;;;11.11;63.39
79127;BME280;68528;48.814;8.904;2023-06-01T00:41:34;96555.22;;;11.00;65.00
79127;BME280;68528;48.814;8.904;2023-06-01T00:44:00;96536.34;;;10.95;63.03
79127;BME280;68528;48.814;8.904;2023-06-01T00:46:27;96542.56;;;11.15;63.08
79127;BME280;68528;48.814;8.904;2023-06-01T00:48:53;96557.34;;;11.30;62.90
79127;BME280;68528;48.814;8.904;2023-06-01T00:51:19;96546.66;;;11.25;62.32
79127;BME280;68528;48.814;8.904;2023-06-01T00:53:45;96542.88;;;11.10;63.61
79127;BME280;68528;48.814;8.904;2023-06-01T00:56:11;96550.31;;;10.90;64.44
79127;BME280;68528;48.814;8.904;2023-06-01T00:58:40;96556.47;;;10.84;65.06
79127;BME280;68528;48.814;8.904;2023-06-01T01:01:06;96544.97;;;10.75;65.08
79127;BME280;68528;48.814;8.904;2023-06-01T01:03:33;96560.88;;;10.69;65.77
79127;BME280;68528;48.814;8.904;2023-06-01T01:06:07;96561.44;;;10.59;66.32
79127;BME280;68528;48.814;8.904;2023-06-01T01:08:47;96563.91;;;10.64;65.86
79127;BME280;68528;48.814;8.904;2023-06-01T01:11:23;96537.31;;;10.65;65.54
79127;BME280;68528;48.814;8.904;2023-06-01T01:16:30;96529.44;;;10.63;65.18
79127;BME280;68528;48.814;8.904;2023-06-01T01:28:10;96549.75;;;10.81;65.52
79127;BME280;68528;48.814;8.904;2023-06-01T01:30:53;96539.91;;;10.58;66.03
79127;BME280;68528;48.814;8.904;2023-06-01T01:33:21;96502.44;;;10.23;66.27
79127;BME280;68528;48.814;8.904;2023-06-01T01:35:48;96535.19;;;10.39;66.90
79127;BME280;68528;48.814;8.904;2023-06-01T01:38:14;96523.38;;;10.35;66.64
79127;BME280;68528;48.814;8.904;2023-06-01T01:40:40;96511.72;;;10.19;67.15
79127;BME280;68528;48.814;8.904;2023-06-01T01:43:05;96501.31;;;10.09;67.26
79127;BME280;68528;48.814;8.904;2023-06-01T01:45:31;96485.66;;;9.90;67.97
79127;BME280;68528;48.814;8.904;2023-06-01T01:50:38;96531.75;;;10.61;66.01
79127;BME280;68528;48.814;8.904;2023-06-01T01:53:08;96539.22;;;10.83;65.65
79127;BME280;68528;48.814;8.904;2023-06-01T01:55:35;96525.69;;;10.71;65.58
79127;BME280;68528;48.814;8.904;2023-06-01T01:58:02;96522.16;;;10.52;67.11
79127;BME280;68528;48.814;8.904;2023-06-01T02:00:28;96533.31;;;10.62;66.06
79127;BME280;68528;48.814;8.904;2023-06-01T02:02:55;96529.16;;;10.68;65.86
79127;BME280;68528;48.814;8.904;2023-06-01T02:05:20;96543.16;;;10.63;65.86
79127;BME280;68528;48.814;8.904;2023-06-01T02:07:56;96501.28;;;10.24;66.16
79127;BME280;68528;48.814;8.904;2023-06-01T02:10:42;96489.97;;;10.45;66.51
79127;BME280;68528;48.814;8.904;2023-06-01T02:13:08;96526.94;;;10.55;66.54
79127;BME280;68528;48.814;8.904;2023-06-01T02:15:33;96508.72;;;10.43;66.73
79127;BME280;68528;48.814;8.904;2023-06-01T02:17:58;96513.88;;;10.29;67.42
79127;BME280;68528;48.814;8.904;2023-06-01T02:20:24;96523.66;;;10.11;68.99
79127;BME280;68528;48.814;8.904;2023-06-01T02:22:49;96516.69;;;9.98;68.86
79127;BME280;68528;48.814;8.904;2023-06-01T02:25:15;96512.78;;;9.80;69.31
79127;BME280;68528;48.814;8.904;2023-06-01T02:27:40;96520.13;;;9.95;69.58
79127;BME280;68528;48.814;8.904;2023-06-01T02:30:29;96528.72;;;9.93;69.71
79127;BME280;68528;48.814;8.904;2023-06-01T02:32:54;96458.69;;;9.38;70.34
79127;BME280;68528;48.814;8.904;2023-06-01T02:35:20;96496.31;;;9.61;69.54
79127;BME280;68528;48.814;8.904;2023-06-01T02:37:45;96510.13;;;9.68;69.98
79127;BME280;68528;48.814;8.904;2023-06-01T02:40:11;96469.97;;;9.37;69.39
79127;BME280;68528;48.814;8.904;2023-06-01T02:42:37;96519.13;;;9.84;69.27
79127;BME280;68528;48.814;8.904;2023-06-01T02:45:05;96521.41;;;9.82;69.26
79127;BME280;68528;48.814;8.904;2023-06-01T02:47:55;96499.94;;;9.65;69.01
79127;BME280;68528;48.814;8.904;2023-06-01T02:50:28;96505.72;;;9.79;68.49
79127;BME280;68528;48.814;8.904;2023-06-01T02:53:13;96517.34;;;9.91;69.97
79127;BME280;68528;48.814;8.904;2023-06-01T02:55:41;96466.38;;;9.33;69.79
79127;BME280;68528;48.814;8.904;2023-06-01T02:58:06;96506.97;;;9.66;69.17
79127;BME280;68528;48.814;8.904;2023-06-01T03:00:39;96532.50;;;9.89;68.82
79127;BME280;68528;48.814;8.904;2023-06-01T03:03:27;96524.84;;;9.94;67.98
79127;BME280;68528;48.814;8.904;2023-06-01T03:06:37;96490.94;;;9.48;68.92
79127;BME280;68528;48.814;8.904;2023-06-01T03:09:03;96511.06;;;9.56;69.53
79127;BME280;68528;48.814;8.904;2023-06-01T03:11:28;96529.13;;;9.45;70.77
79127;BME280;68528;48.814;8.904;2023-06-01T03:13:54;96510.09;;;9.33;71.38
79127;BME280;68528;48.814;8.904;2023-06-01T03:16:22;96497.16;;;9.14;71.64
79127;BME280;68528;48.814;8.904;2023-06-01T03:18:47;96506.66;;;9.20;71.50
79127;BME280;68528;48.814;8.904;2023-06-01T03:21:15;96527.53;;;9.13;72.22
79127;BME280;68528;48.814;8.904;2023-06-01T03:24:11;96507.34;;;8.86;72.97
79127;BME280;68528;48.814;8.904;2023-06-01T03:26:58;96536.16;;;8.99;72.79
79127;BME280;68528;48.814;8.904;2023-06-01T03:29:44;96525.50;;;9.25;71.69
79127;BME280;68528;48.814;8.904;2023-06-01T03:32:12;96526.38;;;8.98;72.47
79127;BME280;68528;48.814;8.904;2023-06-01T03:34:41;96522.91;;;8.86;72.59
79127;BME280;68528;48.814;8.904;2023-06-01T03:37:06;96521.63;;;8.95;72.32
79127;BME280;68528;48.814;8.904;2023-06-01T03:39:33;96537.94;;;9.07;72.80
79127;BME280;68528;48.814;8.904;2023-06-01T03:41:59;96513.25;;;8.88;72.62
79127;BME280;68528;48.814;8.904;2023-06-01T03:44:25;96534.47;;;9.10;72.55
79127;BME280;68528;48.814;8.904;2023-06-01T03:46:51;96536.63;;;9.32;71.28
79127;BME280;68528;48.814;8.904;2023-06-01T03:49:16;96509.84;;;9.22;70.62
79127;BME280;68528;48.814;8.904;2023-06-01T03:51:42;96504.38;;;9.22;70.73
79127;BME280;68528;48.814;8.904;2023-06-01T03:54:12;96528.78;;;9.31;71.41
79127;BME280;68528;48.814;8.904;2023-06-01T03:56:46;96546.22;;;9.42;71.16
79127;BME280;68528;48.814;8.904;2023-06-01T03:59:11;96503.84;;;9.32;70.85
79127;BME280;68528;48.814;8.904;2023-06-01T04:01:41;96518.13;;;9.41;70.88
79127;BME280;68528;48.814;8.904;2023-06-01T04:04:07;96541.56;;;9.42;71.29
79127;BME280;68528;48.814;8.904;2023-06-01T04:06:34;96535.94;;;9.35;72.07
79127;BME280;68528;48.814;8.904;2023-06-01T04:09:02;96535.94;;;9.35;71.44
79127;BME280;68528;48.814;8.904;2023-06-01T04:11:38;96543.66;;;9.49;71.21
79127;BME280;68528;48.814;8.904;2023-06-01T04:14:07;96505.34;;;9.45;70.59
79127;BME280;68528;48.814;8.904;2023-06-01T04:16:32;96509.19;;;9.60;70.82
79127;BME280;68528;48.814;8.904;2023-06-01T04:32:59;96559.97;;;10.27;71.30
79127;BME280;68528;48.814;8.904;2023-06-01T04:36:07;96551.50;;;10.32;70.55
79127;BME280;68528;48.814;8.904;2023-06-01T04:38:55;96551.94;;;10.72;70.24
79127;BME280;68528;48.814;8.904;2023-06-01T04:41:46;96542.28;;;10.78;69.99
79127;BME280;68528;48.814;8.904;2023-06-01T04:44:12;96559.09;;;10.77;72.03
79127;BME280;68528;48.814;8.904;2023-06-01T04:46:43;96551.72;;;10.81;71.97
79127;BME280;68528;48.814;8.904;2023-06-01T04:49:15;96518.66;;;10.70;71.61
79127;BME280;68528;48.814;8.904;2023-06-01T04:51:42;96533.38;;;11.04;70.39
79127;BME280;68528;48.814;8.904;2023-06-01T04:54:08;96554.72;;;11.37;69.79
79127;BME280;68528;48.814;8.904;2023-06-01T04:56:54;96542.09;;;11.55;68.99
79127;BME280;68528;48.814;8.904;2023-06-01T04:59:25;96523.84;;;11.66;68.05
79127;BME280;68528;48.814;8.904;2023-06-01T05:02:13;96540.56;;;12.06;67.16
79127;BME280;68528;48.814;8.904;2023-06-01T05:04:41;96547.13;;;12.24;64.30
79127;BME280;68528;48.814;8.904;2023-06-01T05:07:06;96527.84;;;12.21;62.08
79127;BME280;68528;48.814;8.904;2023-06-01T05:09:32;96500.75;;;12.19;63.21
79127;BME280;68528;48.814;8.904;2023-06-01T05:12:18;96484.78;;;12.25;63.76
79127;BME280;68528;48.814;8.904;2023-06-01T05:15:08;96479.78;;;12.34;63.13
79127;BME280;68528;48.814;8.904;2023-06-01T05:18:07;96569.09;;;13.13;61.98
79127;BME280;68528;48.814;8.904;2023-06-01T05:20:53;96551.63;;;13.35;60.00
79127;BME280;68528;48.814;8.904;2023-06-01T05:23:18;96550.34;;;13.66;58.58
79127;BME280;68528;48.814;8.904;2023-06-01T05:25:47;96524.63;;;13.95;59.75
79127;BME280;68528;48.814;8.904;2023-06-01T05:28:12;96553.47;;;14.84;57.83
79127;BME280;68528;48.814;8.904;2023-06-01T05:30:38;96554.47;;;15.51;56.09
79127;BME280;68528;48.814;8.904;2023-06-01T05:33:06;96550.56;;;15.66;55.27
79127;BME280;68528;48.814;8.904;2023-06-01T05:35:32;96542.59;;;16.39;52.91
79127;BME280;68528;48.814;8.904;2023-06-01T05:37:57;96514.09;;;16.74;51.45
79127;BME280;68528;48.814;8.904;2023-06-01T05:40:22;96540.63;;;17.51;50.12
79127;BME280;68528;48.814;8.904;2023-06-01T05:42:51;96551.91;;;17.05;50.80
79127;BME280;68528;48.814;8.904;2023-06-01T05:45:16;96542.84;;;16.97;50.83
79127;BME280;68528;48.814;8.904;2023-06-01T05:47:42;96544.22;;;16.26;50.16
79127;BME280;68528;48.814;8.904;2023-06-01T05:50:27;96534.41;;;15.90;52.10
79127;BME280;68528;48.814;8.904;2023-06-01T05:52:56;96544.66;;;15.86;52.94
79127;BME280;68528;48.814;8.904;2023-06-01T05:55:21;96559.63;;;15.63;53.89
79127;BME280;68528;48.814;8.904;2023-06-01T05:57:46;96558.47;;;15.96;53.23
79127;BME280;68528;48.814;8.904;2023-06-01T06:00:12;96555.31;;;16.05;52.89
79127;BME280;68528;48.814;8.904;2023-06-01T06:02:39;96534.78;;;15.85;52.33
79127;BME280;68528;48.814;8.904;2023-06-01T06:05:45;96539.44;;;16.58;51.24
79127;BME280;68528;48.814;8.904;2023-06-01T06:08:15;96534.72;;;16.30;50.10
79127;BME280;68528;48.814;8.904;2023-06-01T06:10:41;96526.81;;;16.43;49.99
79127;BME280;68528;48.814;8.904;2023-06-01T06:13:07;96535.53;;;17.97;47.92
79127;BME280;68528;48.814;8.904;2023-06-01T06:15:32;96536.13;;;16.95;49.32
79127;BME280;68528;48.814;8.904;2023-06-01T06:17:58;96562.78;;;17.44;46.82
79127;BME280;68528;48.814;8.904;2023-06-01T06:20:23;96565.47;;;16.68;48.46
79127;BME280;68528;48.814;8.904;2023-06-01T06:22:58;96562.16;;;17.04;48.99
79127;BME280;68528;48.814;8.904;2023-06-01T06:25:26;96555.53;;;16.91;48.40
79127;BME280;68528;48.814;8.904;2023-06-01T06:27:56;96561.44;;;16.97;48.66
79127;BME280;68528;48.814;8.904;2023-06-01T06:30:43;96549.13;;;17.77;47.58
79127;BME280;68528;48.814;8.904;2023-06-01T06:33:11;96532.63;;;17.63;47.74
79127;BME280;68528;48.814;8.904;2023-06-01T06:35:36;96562.47;;;19.72;43.97
79127;BME280;68528;48.814;8.904;2023-06-01T06:38:04;96535.47;;;20.22;42.50
79127;BME280;68528;48.814;8.904;2023-06-01T06:40:29;96552.38;;;20.08;41.75
79127;BME280;68528;48.814;8.904;2023-06-01T06:42:55;96571.38;;;19.30;41.58
79127;BME280;68528;48.814;8.904;2023-06-01T06:45:22;96569.28;;;20.21;41.22
79127;BME280;68528;48.814;8.904;2023-06-01T06:47:49;96557.88;;;19.85;40.58
79127;BME280;68528;48.814;8.904;2023-06-01T06:50:15;96525.56;;;19.15;42.35
79127;BME280;68528;48.814;8.904;2023-06-01T06:52:41;96551.88;;;21.02;39.31
79127;BME280;68528;48.814;8.904;2023-06-01T06:55:08;96538.91;;;20.73;40.18
79127;BME280;68528;48.814;8.904;2023-06-01T06:57:33;96559.81;;;21.59;36.73
79127;BME280;68528;48.814;8.904;2023-06-01T07:00:00;96566.25;;;20.78;39.15
79127;BME280;68528;48.814;8.904;2023-06-01T07:02:26;96566.13;;;20.42;40.01
79127;BME280;68528;48.814;8.904;2023-06-01T07:05:11;96576.25;;;22.86;34.73
79127;BME280;68528;48.814;8.904;2023-06-01T07:07:37;96568.78;;;21.67;37.65
79127;BME280;68528;48.814;8.904;2023-06-01T07:10:03;96528.19;;;19.25;41.94
79127;BME280;68528;48.814;8.904;2023-06-01T07:12:31;96563.44;;;18.61;42.95
79127;BME280;68528;48.814;8.904;2023-06-01T07:14:56;96561.94;;;19.24;43.19
79127;BME280;68528;48.814;8.904;2023-06-01T07:17:24;96575.97;;;19.10;43.63
79127;BME280;68528;48.814;8.904;2023-06-01T07:20:11;96578.16;;;20.36;41.44
79127;BME280;68528;48.814;8.904;2023-06-01T07:23:19;96571.09;;;19.51;42.20
79127;BME280;68528;48.814;8.904;2023-06-01T07:25:45;96558.94;;;19.08;43.02
79127;BME280;68528;48.814;8.904;2023-06-01T07:28:10;96527.09;;;19.19;43.11
79127;BME280;68528;48.814;8.904;2023-06-01T07:30:38;96564.16;;;19.36;42.57
79127;BME280;68528;48.814;8.904;2023-06-01T07:33:03;96541.84;;;19.43;42.16
79127;BME280;68528;48.814;8.904;2023-06-01T07:35:29;96555.53;;;20.76;41.67
79127;BME280;68528;48.814;8.904;2023-06-01T07:37:56;96566.28;;;22.85;35.84
79127;BME280;68528;48.814;8.904;2023-06-01T07:40:27;96556.59;;;23.85;34.97
79127;BME280;68528;48.814;8.904;2023-06-01T07:43:13;96567.22;;;22.66;35.72
79127;BME280;68528;48.814;8.904;2023-06-01T07:46:02;96583.31;;;20.10;40.56
79127;BME280;68528;48.814;8.904;2023-06-01T07:49:14;96570.63;;;20.98;41.91
79127;BME280;68528;48.814;8.904;2023-06-01T07:51:45;96466.53;;;21.80;38.25
79127;BME280;68528;48.814;8.904;2023-06-01T07:54:12;96550.44;;;21.14;39.64
79127;BME280;68528;48.814;8.904;2023-06-01T07:56:41;96557.47;;;20.37;40.30
79127;BME280;68528;48.814;8.904;2023-06-01T07:59:09;96564.78;;;20.27;41.37
79127;BME280;68528;48.814;8.904;2023-06-01T08:01:36;96565.50;;;20.54;40.72
79127;BME280;68528;48.814;8.904;2023-06-01T08:04:03;96563.13;;;22.99;35.30
79127;BME280;68528;48.814;8.904;2023-06-01T08:06:28;96559.94;;;22.24;36.85
79127;BME280;68528;48.814;8.904;2023-06-01T08:09:00;96566.00;;;23.66;33.59
79127;BME280;68528;48.814;8.904;2023-06-01T08:11:26;96569.34;;;21.78;36.41
79127;BME280;68528;48.814;8.904;2023-06-01T08:13:51;96559.59;;;23.11;36.60
79127;BME280;68528;48.814;8.904;2023-06-01T08:16:18;96553.06;;;22.73;36.38
79127;BME280;68528;48.814;8.904;2023-06-01T08:19:07;96569.66;;;22.64;35.62
79127;BME280;68528;48.814;8.904;2023-06-01T08:21:34;96559.00;;;23.32;36.60
79127;BME280;68528;48.814;8.904;2023-06-01T08:24:00;96507.16;;;21.81;37.47
79127;BME280;68528;48.814;8.904;2023-06-01T08:26:27;96541.16;;;23.93;35.28
79127;BME280;68528;48.814;8.904;2023-06-01T08:28:54;96565.47;;;23.01;35.46
79127;BME280;68528;48.814;8.904;2023-06-01T08:31:22;96564.59;;;23.32;34.93
79127;BME280;68528;48.814;8.904;2023-06-01T08:33:49;96552.31;;;24.90;34.04
79127;BME280;68528;48.814;8.904;2023-06-01T08:36:21;96542.06;;;25.83;30.32
79127;BME280;68528;48.814;8.904;2023-06-01T08:38:56;96552.94;;;24.72;33.37
79127;BME280;68528;48.814;8.904;2023-06-01T08:43:56;96532.94;;;24.96;33.39
79127;BME280;68528;48.814;8.904;2023-06-01T08:46:25;96544.03;;;24.52;33.14
79127;BME280;68528;48.814;8.904;2023-06-01T08:48:57;96531.69;;;23.65;35.01
79127;BME280;68528;48.814;8.904;2023-06-01T08:51:24;96514.53;;;25.38;31.87
79127;BME280;68528;48.814;8.904;2023-06-01T08:54:15;96525.53;;;21.27;39.05
79127;BME280;68528;48.814;8.904;2023-06-01T08:57:03;96547.72;;;23.07;36.71
79127;BME280;68528;48.814;8.904;2023-06-01T09:10:57;96547.34;;;24.00;35.65
79127;BME280;68528;48.814;8.904;2023-06-01T09:14:29;96546.81;;;24.52;34.23
79127;BME280;68528;48.814;8.904;2023-06-01T09:17:01;96542.31;;;26.46;29.79
79127;BME280;68528;48.814;8.904;2023-06-01T09:23:24;96528.38;;;24.42;32.15
79127;BME280;68528;48.814;8.904;2023-06-01T09:26:07;96546.09;;;22.94;35.57
79127;BME280;68528;48.814;8.904;2023-06-01T09:38:33;96558.59;;;23.18;35.75
79127;BME280;68528;48.814;8.904;2023-06-01T09:41:00;96445.03;;;25.02;31.89
79127;BME280;68528;48.814;8.904;2023-06-01T09:43:29;96549.44;;;24.34;33.09
79127;BME280;68528;48.814;8.904;2023-06-01T09:46:09;96512.19;;;23.62;35.47
79127;BME280;68528;48.814;8.904;2023-06-01T09:51:44;96539.13;;;25.12;33.18
79127;BME280;68528;48.814;8.904;2023-06-01T09:54:49;96531.63;;;26.14;33.65
79127;BME280;68528;48.814;8.904;2023-06-01T09:58:20;96527.63;;;26.02;29.81
79127;BME280;68528;48.814;8.904;2023-06-01T10:00:51;96509.47;;;25.76;31.81
79127;BME280;68528;48.814;8.904;2023-06-01T10:03:18;96507.63;;;25.51;30.92
79127;BME280;68528;48.814;8.904;2023-06-01T10:06:03;96526.91;;;24.84;33.00
79127;BME280;68528;48.814;8.904;2023-06-01T10:08:51;96528.59;;;26.66;30.66
79127;BME280;68528;48.814;8.904;2023-06-01T10:11:18;96528.13;;;26.59;31.63
79127;BME280;68528;48.814;8.904;2023-06-01T10:13:43;96521.09;;;27.27;29.92
79127;BME280;68528;48.814;8.904;2023-06-01T10:16:09;96524.72;;;27.45;29.25
79127;BME280;68528;48.814;8.904;2023-06-01T10:18:38;96485.34;;;25.88;31.52
79127;BME280;68528;48.814;8.904;2023-06-01T10:21:04;96508.00;;;26.60;29.97
79127;BME280;68528;48.814;8.904;2023-06-01T10:23:31;96503.00;;;25.57;30.99
79127;BME280;68528;48.814;8.904;2023-06-01T10:25:58;96518.19;;;27.03;29.04
79127;BME280;68528;48.814;8.904;2023-06-01T10:28:26;96519.41;;;27.11;29.10
79127;BME280;68528;48.814;8.904;2023-06-01T10:33:58;96498.56;;;28.61;25.87
79127;BME280;68528;48.814;8.904;2023-06-01T10:36:24;96505.00;;;28.29;27.08
79127;BME280;68528;48.814;8.904;2023-06-01T10:39:26;96501.31;;;29.08;24.69
79127;BME280;68528;48.814;8.904;2023-06-01T10:41:55;96489.69;;;26.28;28.86
79127;BME280;68528;48.814;8.904;2023-06-01T10:52:36;96497.09;;;27.35;27.05
79127;BME280;68528;48.814;8.904;2023-06-01T10:57:52;96492.66;;;30.14;22.62
79127;BME280;68528;48.814;8.904;2023-06-01T11:00:59;96485.72;;;26.75;29.54
79127;BME280;68528;48.814;8.904;2023-06-01T11:03:47;96497.09;;;27.07;27.77
79127;BME280;68528;48.814;8.904;2023-06-01T11:09:11;96482.00;;;28.54;26.01
79127;BME280;68528;48.814;8.904;2023-06-01T11:14:23;96477.28;;;28.36;25.48
79127;BME280;68528;48.814;8.904;2023-06-01T11:16:50;96468.00;;;27.79;25.36
79127;BME280;68528;48.814;8.904;2023-06-01T11:19:21;96459.09;;;27.81;26.92
79127;BME280;68528;48.814;8.904;2023-06-01T11:29:35;96437.59;;;25.69;28.40
79127;BME280;68528;48.814;8.904;2023-06-01T11:32:03;96449.75;;;26.15;27.86
79127;BME280;68528;48.814;8.904;2023-06-01T11:36:56;96469.88;;;27.50;27.86
79127;BME280;68528;48.814;8.904;2023-06-01T11:39:26;96439.06;;;27.46;26.19
79127;BME280;68528;48.814;8.904;2023-06-01T11:59:00;96450.19;;;27.41;27.22
79127;BME280;68528;48.814;8.904;2023-06-01T12:01:27;96451.22;;;26.92;24.77
79127;BME280;68528;48.814;8.904;2023-06-01T12:03:54;96433.84;;;26.12;27.21
79127;BME280;68528;48.814;8.904;2023-06-01T12:06:23;96447.41;;;27.73;24.59
79127;BME280;68528;48.814;8.904;2023-06-01T12:09:08;96454.66;;;26.02;26.94
79127;BME280;68528;48.814;8.904;2023-06-01T12:12:03;96419.03;;;28.19;24.84
79127;BME280;68528;48.814;8.904;2023-06-01T12:15:28;96448.00;;;27.27;24.56
79127;BME280;68528;48.814;8.904;2023-06-01T12:18:30;96444.78;;;26.46;25.49
79127;BME280;68528;48.814;8.904;2023-06-01T12:20:58;96438.19;;;27.73;28.06
79127;BME280;68528;48.814;8.904;2023-06-01T12:24:01;96448.97;;;25.75;25.59
79127;BME280;68528;48.814;8.904;2023-06-01T12:26:35;96428.09;;;25.36;26.37
79127;BME280;68528;48.814;8.904;2023-06-01T12:29:01;96403.41;;;25.22;26.44
79127;BME280;68528;48.814;8.904;2023-06-01T12:31:30;96389.50;;;25.10;25.31
79127;BME280;68528;48.814;8.904;2023-06-01T12:40:21;96429.50;;;26.20;25.74
79127;BME280;68528;48.814;8.904;2023-06-01T12:42:49;96413.91;;;26.65;23.74
79127;BME280;68528;48.814;8.904;2023-06-01T12:45:16;96344.53;;;27.07;26.04
79127;BME280;68528;48.814;8.904;2023-06-01T12:47:44;96301.72;;;27.12;22.60
79127;BME280;68528;48.814;8.904;2023-06-01T12:50:12;96397.38;;;26.30;24.63
79127;BME280;68528;48.814;8.904;2023-06-01T12:53:02;96421.97;;;25.29;24.95
79127;BME280;68528;48.814;8.904;2023-06-01T12:55:59;96384.63;;;25.72;24.81
79127;BME280;68528;48.814;8.904;2023-06-01T12:58:27;96412.63;;;26.11;25.16
79127;BME280;68528;48.814;8.904;2023-06-01T13:00:56;96382.34;;;25.97;24.67
79127;BME280;68528;48.814;8.904;2023-06-01T13:03:27;96393.28;;;26.95;23.98
79127;BME280;68528;48.814;8.904;2023-06-01T13:05:56;96392.75;;;27.89;21.80
79127;BME280;68528;48.814;8.904;2023-06-01T13:08:22;96366.22;;;25.61;25.18
79127;BME280;68528;48.814;8.904;2023-06-01T13:13:59;96410.78;;;26.81;23.55
79127;BME280;68528;48.814;8.904;2023-06-01T13:16:27;96351.56;;;27.02;24.88
79127;BME280;68528;48.814;8.904;2023-06-01T13:18:55;96368.75;;;27.79;21.96
79127;BME280;68528;48.814;8.904;2023-06-01T13:21:23;96378.34;;;26.34;24.51
79127;BME280;68528;48.814;8.904;2023-06-01T13:26:41;96398.56;;;26.02;24.63
79127;BME280;68528;48.814;8.904;2023-06-01T13:32:40;96339.19;;;26.22;23.31
79127;BME280;68528;48.814;8.904;2023-06-01T13:35:25;96393.63;;;26.33;26.00
79127;BME280;68528;48.814;8.904;2023-06-01T13:37:51;96362.69;;;27.71;23.12
79127;BME280;68528;48.814;8.904;2023-06-01T13:40:18;96360.56;;;28.52;21.91
79127;BME280;68528;48.814;8.904;2023-06-01T13:42:52;96385.25;;;27.86;23.45
79127;BME280;68528;48.814;8.904;2023-06-01T13:45:21;96366.41;;;27.03;24.80
79127;BME280;68528;48.814;8.904;2023-06-01T13:50:54;96362.34;;;25.77;24.20
79127;BME280;68528;48.814;8.904;2023-06-01T13:53:27;96348.72;;;26.24;24.50
79127;BME280;68528;48.814;8.904;2023-06-01T13:55:53;96364.44;;;26.49;23.92
79127;BME280;68528;48.814;8.904;2023-06-01T13:58:20;96352.75;;;26.23;26.09
79127;BME280;68528;48.814;8.904;2023-06-01T14:00:45;96347.09;;;26.69;23.95
79127;BME280;68528;48.814;8.904;2023-06-01T14:03:22;96375.13;;;25.78;23.89
79127;BME280;68528;48.814;8.904;2023-06-01T14:06:16;96367.16;;;27.54;23.22
79127;BME280;68528;48.814;8.904;2023-06-01T14:11:57;96354.22;;;28.95;23.58
79127;BME280;68528;48.814;8.904;2023-06-01T14:14:22;96332.63;;;28.63;21.93
79127;BME280;68528;48.814;8.904;2023-06-01T14:16:48;96322.63;;;27.20;23.05
79127;BME280;68528;48.814;8.904;2023-06-01T14:19:15;96361.41;;;27.81;22.76
79127;BME280;68528;48.814;8.904;2023-06-01T14:21:40;96319.34;;;27.21;22.36
79127;BME280;68528;48.814;8.904;2023-06-01T14:24:06;96353.19;;;26.85;23.32
79127;BME280;68528;48.814;8.904;2023-06-01T14:26:38;96314.78;;;27.57;20.41
79127;BME280;68528;48.814;8.904;2023-06-01T14:29:24;96356.03;;;26.13;23.25
79127;BME280;68528;48.814;8.904;2023-06-01T14:31:51;96328.78;;;27.33;20.60
79127;BME280;68528;48.814;8.904;2023-06-01T14:34:22;96344.31;;;27.61;20.76
79127;BME280;68528;48.814;8.904;2023-06-01T14:36:51;96322.84;;;27.40;22.28
79127;BME280;68528;48.814;8.904;2023-06-01T14:39:16;96322.66;;;27.44;22.53
79127;BME280;68528;48.814;8.904;2023-06-01T14:44:47;96335.50;;;27.45;25.45
79127;BME280;68528;48.814;8.904;2023-06-01T14:47:12;96306.66;;;27.82;21.29
79127;BME280;68528;48.814;8.904;2023-06-01T14:49:39;96327.13;;;27.83;21.38
79127;BME280;68528;48.814;8.904;2023-06-01T14:52:05;96331.97;;;28.30;21.72
79127;BME280;68528;48.814;8.904;2023-06-01T14:54:31;96315.63;;;27.95;22.36
79127;BME280;68528;48.814;8.904;2023-06-01T14:56:57;96316.88;;;27.94;24.28
79127;BME280;68528;48.814;8.904;2023-06-01T14:59:23;96313.09;;;27.50;23.63
79127;BME280;68528;48.814;8.904;2023-06-01T15:01:50;96322.56;;;26.96;25.51
79127;BME280;68528;48.814;8.904;2023-06-01T15:04:18;96288.47;;;27.03;24.03
79127;BME280;68528;48.814;8.904;2023-06-01T15:07:00;96294.41;;;27.47;23.23
79127;BME280;68528;48.814;8.904;2023-06-01T15:09:25;96248.69;;;26.54;24.40
79127;BME280;68528;48.814;8.904;2023-06-01T15:17:10;96270.16;;;24.81;26.07
79127;BME280;68528;48.814;8.904;2023-06-01T15:19:36;96287.88;;;26.39;26.52
79127;BME280;68528;48.814;8.904;2023-06-01T15:22:23;96310.91;;;25.71;25.30
79127;BME280;68528;48.814;8.904;2023-06-01T15:24:48;96295.22;;;26.10;24.69
79127;BME280;68528;48.814;8.904;2023-06-01T15:27:14;96291.44;;;25.86;25.88
79127;BME280;68528;48.814;8.904;2023-06-01T15:29:40;96281.63;;;25.90;24.90
79127;BME280;68528;48.814;8.904;2023-06-01T15:32:06;96261.81;;;26.99;25.13
79127;BME280;68528;48.814;8.904;2023-06-01T15:34:32;96265.34;;;26.67;23.87
79127;BME280;68528;48.814;8.904;2023-06-01T15:36:57;96290.19;;;26.41;24.38
79127;BME280;68528;48.814;8.904;2023-06-01T15:39:31;96304.38;;;25.83;25.24
79127;BME280;68528;48.814;8.904;2023-06-01T15:42:18;96294.72;;;25.66;25.24